Elkhorn City, Kentucky
Current Conditions -  °F | °C
As of 3:35 PM on Friday 21 Nov 2014 (Local Time) from KPBX Reporting Station
Clear Clear  
Wind Chill: 37°   Ceiling: Unl
Heat Index: 37°   Visibility: 10mi
Dew Point: 12°   Wind: 0mph
Humidity: 35%   Direction: NA
Pressure: 30.44"   Gusts: NA
Location:  37.3°N, 82.35°W
Report Text: KPBX 212035Z AUTO 00000KT 10SM CLR 03/M11 A3044 RMK AO2 T00301111
Loading
Personal Weather Stations






























Interactive Weather Map New forecast layout! Learn more

10-Day Weather Forecast

Advertisements
Track Severe Weather on mobile